Time;durP1;ratioP1;P1;durP2;ratioP2;P2;SDS_P1;SDS_P2;PMS_P1;PMS_P2;Temp;Humidity;BMP_temperature;BMP_pressure;BME280_temperature;BME280_humidity;BME280_pressure;Samples;Min_cycle;Max_cycle;Signal;HPM_P1;HPM_P2
2022/03/24 00:00:10;;;;;;;19.20;14.35;;;9.40;96.80;;;;;;5055837;28;20026;-71
2022/03/24 00:02:35;;;;;;;19.50;13.45;;;9.40;96.20;;;;;;5048821;28;20021;-69
2022/03/24 00:05:02;;;;;;;21.15;13.63;;;9.50;96.30;;;;;;5051168;28;20102;-71
2022/03/24 00:07:28;;;;;;;19.20;12.63;;;9.50;96.50;;;;;;5048956;28;20107;-69
2022/03/24 00:09:54;;;;;;;22.65;13.20;;;9.50;96.80;;;;;;5049749;28;20104;-69
2022/03/24 00:12:22;;;;;;;17.83;12.05;;;9.50;97.10;;;;;;5048364;28;20052;-70
2022/03/24 00:14:48;;;;;;;27.33;13.25;;;9.30;97.30;;;;;;5049526;28;20065;-70
2022/03/24 00:17:13;;;;;;;18.85;13.48;;;9.30;97.30;;;;;;5049045;28;20399;-71
2022/03/24 00:19:39;;;;;;;17.30;13.13;;;9.20;97.20;;;;;;5054328;28;20241;-69
2022/03/24 00:22:05;;;;;;;17.10;12.88;;;9.20;96.80;;;;;;5044847;28;20025;-70
2022/03/24 00:24:31;;;;;;;16.10;12.32;;;9.20;96.90;;;;;;5065788;28;20155;-70
2022/03/24 00:26:56;;;;;;;21.92;12.05;;;9.20;97.80;;;;;;5030705;28;20029;-69
2022/03/24 00:29:23;;;;;;;18.85;13.27;;;9.30;98.20;;;;;;5034730;28;20048;-71
2022/03/24 00:31:49;;;;;;;16.73;11.95;;;9.20;98.20;;;;;;5050512;28;20151;-70
2022/03/24 00:34:15;;;;;;;15.70;12.88;;;9.20;98.10;;;;;;5049404;28;20487;-69
2022/03/24 00:36:41;;;;;;;17.73;12.55;;;9.00;98.30;;;;;;5050455;28;20055;-70
2022/03/24 00:39:06;;;;;;;17.40;13.02;;;9.00;98.30;;;;;;5029043;28;20025;-71
2022/03/24 00:41:32;;;;;;;16.58;13.57;;;9.00;98.40;;;;;;5030237;28;20143;-69
2022/03/24 00:43:58;;;;;;;14.60;11.25;;;8.90;98.70;;;;;;5030452;28;20029;-69
2022/03/24 00:46:24;;;;;;;15.75;12.27;;;8.90;98.80;;;;;;5033546;28;20029;-70
2022/03/24 00:48:51;;;;;;;20.58;12.07;;;8.90;98.80;;;;;;5050098;28;20112;-71
2022/03/24 00:51:18;;;;;;;18.50;12.68;;;8.90;99.00;;;;;;5043083;28;20119;-69
2022/03/24 00:53:44;;;;;;;19.15;12.45;;;8.90;98.90;;;;;;5044021;28;22216;-70
2022/03/24 00:56:10;;;;;;;18.33;14.00;;;8.90;98.90;;;;;;5042686;28;20047;-69
2022/03/24 00:58:38;;;;;;;23.00;12.10;;;8.90;99.20;;;;;;5043292;28;20036;-68
2022/03/24 01:01:16;;;;;;;16.27;11.65;;;8.90;99.30;;;;;;5047462;28;20086;-73
2022/03/24 01:03:43;;;;;;;15.65;12.20;;;8.80;99.40;;;;;;5047557;28;20039;-71
2022/03/24 01:06:10;;;;;;;16.65;12.15;;;8.80;99.70;;;;;;5049377;28;20432;-71
2022/03/24 01:08:37;;;;;;;20.92;12.30;;;8.90;99.80;;;;;;5050206;28;20055;-71
2022/03/24 01:11:07;;;;;;;16.65;13.25;;;8.80;99.90;;;;;;5048829;28;20036;-71
2022/03/24 01:13:34;;;;;;;25.17;13.68;;;8.80;99.90;;;;;;5048956;28;20052;-71
2022/03/24 01:16:03;;;;;;;17.60;13.82;;;8.70;99.90;;;;;;5047440;28;20017;-69
2022/03/24 01:18:30;;;;;;;16.35;12.20;;;8.60;99.60;;;;;;5043794;28;20029;-69
2022/03/24 01:20:56;;;;;;;14.55;10.75;;;8.60;99.60;;;;;;5046391;28;20021;-68
2022/03/24 01:23:23;;;;;;;14.30;12.10;;;8.70;98.60;;;;;;5048218;28;20028;-69
2022/03/24 01:25:49;;;;;;;15.98;12.10;;;8.70;98.70;;;;;;5048202;28;20379;-69
2022/03/24 01:28:15;;;;;;;14.30;11.65;;;8.70;99.20;;;;;;5047402;28;20028;-69
2022/03/24 01:30:41;;;;;;;22.10;12.85;;;8.70;99.60;;;;;;5048920;28;20029;-70
2022/03/24 01:33:08;;;;;;;17.60;11.80;;;8.70;99.20;;;;;;5049094;28;20479;-68
2022/03/24 01:35:34;;;;;;;16.40;12.32;;;8.70;99.10;;;;;;5048709;28;20021;-71
2022/03/24 01:38:00;;;;;;;19.17;11.27;;;8.60;98.90;;;;;;5046532;28;20028;-70
2022/03/24 01:40:26;;;;;;;48.97;16.02;;;8.60;99.30;;;;;;5042810;28;20025;-72
2022/03/24 01:42:52;;;;;;;18.00;12.32;;;8.70;99.50;;;;;;5040297;28;20387;-70
2022/03/24 01:45:19;;;;;;;17.83;13.20;;;8.60;99.30;;;;;;5040398;28;20024;-70
2022/03/24 01:47:45;;;;;;;27.73;12.25;;;8.60;99.40;;;;;;5040925;28;20059;-70
2022/03/24 01:50:11;;;;;;;19.65;11.90;;;8.60;99.30;;;;;;5040368;28;20056;-73
2022/03/24 01:52:38;;;;;;;25.90;12.00;;;8.50;99.40;;;;;;5044055;28;20021;-70
2022/03/24 01:55:06;;;;;;;20.77;11.57;;;8.50;99.60;;;;;;5065138;28;20047;-70
2022/03/24 01:57:33;;;;;;;15.98;12.57;;;8.50;99.70;;;;;;5055629;28;20028;-71
2022/03/24 02:00:00;;;;;;;17.00;11.73;;;8.60;99.60;;;;;;5051967;28;20020;-69
2022/03/24 02:02:26;;;;;;;18.40;10.23;;;8.50;99.70;;;;;;5055412;28;20020;-70
2022/03/24 02:04:52;;;;;;;12.40;10.85;;;8.40;98.60;;;;;;5053924;28;20084;-70
2022/03/24 02:07:18;;;;;;;17.92;11.38;;;8.40;98.30;;;;;;5043253;28;20056;-70
2022/03/24 02:09:44;;;;;;;17.70;11.65;;;8.50;99.90;;;;;;5043864;28;20440;-71
2022/03/24 02:12:12;;;;;;;20.52;11.30;;;8.50;99.50;;;;;;5042714;28;20513;-70
2022/03/24 02:14:39;;;;;;;19.15;12.45;;;8.40;99.40;;;;;;5042804;28;20116;-71
2022/03/24 02:17:05;;;;;;;16.92;11.57;;;8.40;99.60;;;;;;5041232;28;20531;-70
2022/03/24 02:19:34;;;;;;;16.13;10.82;;;8.30;99.90;;;;;;5040363;28;20396;-70
2022/03/24 02:22:12;;;;;;;14.05;11.60;;;8.30;99.90;;;;;;5046234;28;21071;-69
2022/03/24 02:24:38;;;;;;;23.20;16.25;;;8.30;99.90;;;;;;5043062;28;20021;-71
2022/03/24 02:27:04;;;;;;;17.45;13.13;;;8.20;99.90;;;;;;5041566;28;20061;-70
2022/03/24 02:29:30;;;;;;;16.05;12.77;;;8.20;99.90;;;;;;5041643;28;20033;-69
2022/03/24 02:31:56;;;;;;;16.70;13.52;;;8.10;99.90;;;;;;5041042;28;20025;-72
2022/03/24 02:34:38;;;;;;;13.68;12.20;;;8.10;99.90;;;;;;5041213;28;20044;-69
2022/03/24 02:37:07;;;;;;;14.77;12.25;;;8.10;99.90;;;;;;5040681;28;20713;-68
2022/03/24 02:39:38;;;;;;;16.27;11.40;;;8.10;99.90;;;;;;5045751;28;20063;-69
2022/03/24 02:42:05;;;;;;;18.33;12.35;;;8.00;99.90;;;;;;5039949;28;20033;-70
2022/03/24 02:44:31;;;;;;;14.75;11.98;;;8.00;99.90;;;;;;5045702;28;20125;-70
2022/03/24 02:47:03;;;;;;;17.75;11.55;;;8.00;99.90;;;;;;5043565;28;20091;-72
2022/03/24 02:49:31;;;;;;;22.75;13.35;;;8.10;99.90;;;;;;5045211;28;20492;-72
2022/03/24 02:52:02;;;;;;;16.42;12.27;;;8.10;99.90;;;;;;5045592;28;20087;-71
2022/03/24 02:54:30;;;;;;;16.55;11.48;;;8.10;99.90;;;;;;5044660;28;20116;-71
2022/03/24 02:57:02;;;;;;;18.98;11.32;;;8.10;99.90;;;;;;5045233;28;20029;-71
2022/03/24 02:59:35;;;;;;;18.52;12.27;;;8.10;99.90;;;;;;5043964;28;20106;-70
2022/03/24 03:02:02;;;;;;;;;;;8.00;99.90;;;;;;5044380;28;20025;-71
2022/03/24 03:04:31;;;;;;;14.20;11.40;;;8.00;99.90;;;;;;5042680;28;19916;-72
2022/03/24 03:07:02;;;;;;;13.77;11.20;;;7.90;99.90;;;;;;5042507;28;20033;-73
2022/03/24 03:09:29;;;;;;;15.82;11.65;;;7.80;99.90;;;;;;5043039;28;20032;-69
2022/03/24 03:11:56;;;;;;;14.75;10.25;;;7.70;99.90;;;;;;5043865;28;20021;-69
2022/03/24 03:14:22;;;;;;;19.58;10.85;;;7.70;99.90;;;;;;5041770;28;20447;-70
2022/03/24 03:16:48;;;;;;;13.23;10.80;;;7.70;99.90;;;;;;5043234;28;20178;-68
2022/03/24 03:19:17;;;;;;;22.08;11.52;;;7.80;99.90;;;;;;5041096;28;20039;-69
2022/03/24 03:21:44;;;;;;;16.75;10.85;;;7.80;99.90;;;;;;5045570;28;20386;-71
2022/03/24 03:24:11;;;;;;;11.18;9.95;;;7.70;99.90;;;;;;5039258;28;20522;-68
2022/03/24 03:26:38;;;;;;;13.57;11.60;;;7.70;99.90;;;;;;5043969;28;20037;-71
2022/03/24 03:29:06;;;;;;;12.35;10.88;;;7.80;99.90;;;;;;5042402;28;20032;-69
2022/03/24 03:31:32;;;;;;;14.52;10.65;;;7.90;99.90;;;;;;5046202;28;20507;-71
2022/03/24 03:33:58;;;;;;;12.15;9.05;;;7.80;99.90;;;;;;5042371;28;20064;-71
2022/03/24 03:36:25;;;;;;;13.82;12.43;;;7.70;99.90;;;;;;5044130;28;20032;-70
2022/03/24 03:38:51;;;;;;;14.85;9.77;;;7.60;99.90;;;;;;5040524;28;20519;-69
2022/03/24 03:41:20;;;;;;;12.10;9.40;;;7.60;99.90;;;;;;5042772;28;20053;-68
2022/03/24 03:43:47;;;;;;;12.88;10.52;;;7.70;99.90;;;;;;5045176;28;20021;-70
2022/03/24 03:46:13;;;;;;;16.85;10.73;;;7.80;99.30;;;;;;5045579;28;20021;-70
2022/03/24 03:48:40;;;;;;;19.80;10.98;;;7.80;99.60;;;;;;5043561;28;20071;-68
2022/03/24 03:51:07;;;;;;;17.92;11.82;;;7.90;99.70;;;;;;5045958;28;20021;-69
2022/03/24 03:53:34;;;;;;;14.15;10.55;;;8.00;99.60;;;;;;5044725;28;20025;-69
2022/03/24 03:56:00;;;;;;;17.13;10.52;;;8.10;99.90;;;;;;5041287;28;20120;-70
2022/03/24 03:58:26;;;;;;;19.05;10.63;;;8.20;99.90;;;;;;5040869;28;20029;-69
2022/03/24 04:00:52;;;;;;;15.93;10.98;;;8.30;99.80;;;;;;5047262;28;20033;-69
2022/03/24 04:03:44;;;;;;;19.45;11.73;;;8.20;99.40;;;;;;5040061;28;20029;-69
2022/03/24 04:06:12;;;;;;;16.30;10.63;;;8.20;99.50;;;;;;5036857;28;20037;-68
2022/03/24 04:08:40;;;;;;;15.07;11.65;;;8.40;97.90;;;;;;5042892;28;20137;-69
2022/03/24 04:11:07;;;;;;;16.83;10.52;;;8.60;97.00;;;;;;5046153;28;20099;-70
2022/03/24 04:13:37;;;;;;;17.85;10.55;;;8.60;96.50;;;;;;5041764;28;20024;-71
2022/03/24 04:16:04;;;;;;;16.98;11.38;;;8.60;96.00;;;;;;5046037;28;20024;-71
2022/03/24 04:18:30;;;;;;;14.43;10.07;;;8.70;96.60;;;;;;5044618;28;20066;-70
2022/03/24 04:20:56;;;;;;;13.70;10.80;;;8.70;96.40;;;;;;5048540;28;20044;-69
2022/03/24 04:23:22;;;;;;;20.20;10.15;;;8.70;96.30;;;;;;5049326;28;20643;-68
2022/03/24 04:25:47;;;;;;;15.88;11.55;;;8.70;96.10;;;;;;5039065;28;20033;-70
2022/03/24 04:28:14;;;;;;;17.33;10.02;;;8.60;96.30;;;;;;5041833;28;20024;-68
2022/03/24 04:30:42;;;;;;;13.75;10.00;;;8.60;95.80;;;;;;5042525;28;20840;-68
2022/03/24 04:33:08;;;;;;;16.85;11.48;;;8.50;95.50;;;;;;5038125;28;20017;-68
2022/03/24 04:35:34;;;;;;;18.00;11.38;;;8.50;95.50;;;;;;5040183;28;20079;-69
2022/03/24 04:38:00;;;;;;;16.13;10.68;;;8.60;95.00;;;;;;5038779;28;20025;-69
2022/03/24 04:40:26;;;;;;;18.70;10.82;;;8.70;95.40;;;;;;5044243;28;20255;-70
2022/03/24 04:42:54;;;;;;;16.80;11.98;;;8.70;95.60;;;;;;5042960;28;20056;-68
2022/03/24 04:45:20;;;;;;;14.35;10.27;;;8.60;95.60;;;;;;5039128;28;20048;-69
2022/03/24 04:47:47;;;;;;;12.85;11.18;;;8.40;95.50;;;;;;5039129;28;20669;-70
2022/03/24 04:50:14;;;;;;;18.83;11.23;;;8.30;95.90;;;;;;5040169;28;20064;-69
2022/03/24 04:52:41;;;;;;;12.25;10.57;;;8.20;96.00;;;;;;5040193;28;20429;-71
2022/03/24 04:55:07;;;;;;;20.70;10.55;;;8.10;95.80;;;;;;5036540;28;20025;-69
2022/03/24 04:57:34;;;;;;;24.67;11.07;;;8.10;97.70;;;;;;5035556;28;20021;-69
2022/03/24 05:00:00;;;;;;;16.60;11.30;;;8.10;98.80;;;;;;5038326;28;20021;-69
2022/03/24 05:02:26;;;;;;;21.55;11.02;;;7.80;99.40;;;;;;5040117;28;20029;-69
2022/03/24 05:04:54;;;;;;;15.00;10.98;;;7.80;98.70;;;;;;5039157;28;20121;-71
2022/03/24 05:07:20;;;;;;;18.58;10.80;;;7.80;98.60;;;;;;5043230;28;20017;-70
2022/03/24 05:09:45;;;;;;;19.83;11.88;;;7.70;97.80;;;;;;5033638;28;20097;-69
2022/03/24 05:12:12;;;;;;;20.10;14.90;;;7.70;99.40;;;;;;5034828;28;20036;-70
2022/03/24 05:14:38;;;;;;;22.08;12.27;;;7.70;99.10;;;;;;5039897;28;20025;-69
2022/03/24 05:17:06;;;;;;;24.65;12.98;;;7.70;99.50;;;;;;5042513;28;20529;-70
2022/03/24 05:19:32;;;;;;;19.83;11.88;;;7.70;99.60;;;;;;5039206;28;20025;-70
2022/03/24 05:21:58;;;;;;;17.13;11.55;;;7.60;99.80;;;;;;5037844;28;20037;-70
2022/03/24 05:24:24;;;;;;;22.55;12.93;;;7.60;99.50;;;;;;5037405;28;20496;-69
2022/03/24 05:26:50;;;;;;;19.13;12.15;;;7.70;99.90;;;;;;5044710;28;20090;-69
2022/03/24 05:29:16;;;;;;;23.52;12.80;;;7.70;99.90;;;;;;5036733;28;20292;-71
2022/03/24 05:31:41;;;;;;;22.00;12.82;;;7.70;99.40;;;;;;5040162;28;20037;-70
2022/03/24 05:34:07;;;;;;;21.60;14.07;;;7.80;99.20;;;;;;5042940;28;20036;-69
2022/03/24 05:36:33;;;;;;;19.67;12.43;;;7.90;99.90;;;;;;5047031;28;20021;-69
2022/03/24 05:38:59;;;;;;;29.38;14.60;;;7.90;99.90;;;;;;5047755;28;20032;-68
2022/03/24 05:41:26;;;;;;;18.65;12.82;;;7.90;99.90;;;;;;5047688;28;20022;-69
2022/03/24 05:44:04;;;;;;;24.73;14.15;;;8.00;99.90;;;;;;5046739;28;20475;-70
2022/03/24 05:46:41;;;;;;;27.10;13.57;;;8.10;99.90;;;;;;5046163;28;20420;-72
2022/03/24 05:49:09;;;;;;;27.08;13.50;;;8.20;99.90;;;;;;5049262;28;20029;-69
2022/03/24 05:51:35;;;;;;;28.30;13.10;;;8.20;99.90;;;;;;5045816;28;20029;-70
2022/03/24 05:54:01;;;;;;;29.40;14.68;;;8.10;99.90;;;;;;5045891;28;20487;-73
2022/03/24 05:56:28;;;;;;;33.00;12.55;;;8.20;99.90;;;;;;5047171;28;20026;-71
2022/03/24 05:58:55;;;;;;;27.77;13.23;;;8.20;99.90;;;;;;5046300;28;20021;-69
2022/03/24 06:01:24;;;;;;;34.60;17.63;;;8.30;99.90;;;;;;5041531;28;20033;-71
2022/03/24 06:03:51;;;;;;;25.90;13.80;;;8.40;99.90;;;;;;5044625;28;20391;-70
2022/03/24 06:06:18;;;;;;;27.95;13.45;;;8.50;99.90;;;;;;5046375;28;20033;-72
2022/03/24 06:08:44;;;;;;;30.67;13.30;;;8.70;99.90;;;;;;5044426;28;20044;-69
2022/03/24 06:11:13;;;;;;;28.00;14.48;;;8.80;99.90;;;;;;5047739;28;20025;-71
2022/03/24 06:13:43;;;;;;;20.83;13.80;;;8.90;99.90;;;;;;5051296;28;20068;-72
2022/03/24 06:16:09;;;;;;;19.95;11.93;;;9.10;99.90;;;;;;5047923;28;20092;-69
2022/03/24 06:18:36;;;;;;;25.40;15.05;;;9.50;99.80;;;;;;5049274;28;20510;-73
2022/03/24 06:21:04;;;;;;;23.08;16.67;;;9.50;99.90;;;;;;5049066;28;20036;-71
2022/03/24 06:23:30;;;;;;;20.42;14.60;;;9.60;99.90;;;;;;5051445;28;20112;-69
2022/03/24 06:25:56;;;;;;;17.60;13.38;;;9.70;99.90;;;;;;5053791;28;20067;-70
2022/03/24 06:28:22;;;;;;;24.40;14.63;;;9.80;99.90;;;;;;5041910;28;20034;-70
2022/03/24 06:30:48;;;;;;;26.90;16.58;;;10.00;99.90;;;;;;5046216;28;20029;-70
2022/03/24 06:33:16;;;;;;;23.52;14.43;;;10.10;99.90;;;;;;5048893;28;20053;-69
2022/03/24 06:35:43;;;;;;;18.83;14.95;;;10.30;99.30;;;;;;5043622;28;20095;-69
2022/03/24 06:38:10;;;;;;;16.17;12.52;;;10.40;98.10;;;;;;5045618;28;20533;-69
2022/03/24 06:40:38;;;;;;;18.98;13.52;;;10.60;97.40;;;;;;5037963;28;20797;-71
2022/03/24 06:43:05;;;;;;;19.58;13.43;;;10.80;97.40;;;;;;5045419;28;20017;-72
2022/03/24 06:45:30;;;;;;;21.80;13.98;;;10.90;97.40;;;;;;5050450;28;20222;-72
2022/03/24 06:47:56;;;;;;;17.63;14.40;;;11.10;97.50;;;;;;5039312;28;20120;-69
2022/03/24 06:50:22;;;;;;;19.40;14.90;;;11.20;98.20;;;;;;5047337;28;20438;-70
2022/03/24 06:52:47;;;;;;;19.83;14.93;;;11.40;98.60;;;;;;5040820;28;20025;-69
2022/03/24 06:55:13;;;;;;;24.67;15.50;;;11.40;99.10;;;;;;5047289;28;20602;-69
2022/03/24 06:57:40;;;;;;;28.80;17.17;;;11.40;99.50;;;;;;5050845;28;20025;-70
2022/03/24 07:00:07;;;;;;;23.73;15.43;;;11.40;99.90;;;;;;5050143;28;20101;-70
2022/03/24 07:02:33;;;;;;;21.35;15.48;;;11.40;99.90;;;;;;5052244;28;20159;-71
2022/03/24 07:05:00;;;;;;;23.20;17.92;;;11.50;99.90;;;;;;5035137;28;20022;-70
2022/03/24 07:07:27;;;;;;;22.77;18.38;;;11.60;99.90;;;;;;5031311;28;20117;-71
2022/03/24 07:09:53;;;;;;;33.17;20.52;;;11.70;99.90;;;;;;5032626;28;20017;-73
2022/03/24 07:12:21;;;;;;;28.77;18.35;;;11.80;99.90;;;;;;5046497;28;20032;-69
2022/03/24 07:14:47;;;;;;;24.55;18.65;;;11.90;99.90;;;;;;5044637;28;20476;-70
2022/03/24 07:17:14;;;;;;;31.98;19.13;;;11.90;99.90;;;;;;5032779;28;20018;-70
2022/03/24 07:19:42;;;;;;;31.75;19.80;;;11.90;99.90;;;;;;5036710;28;20520;-69
2022/03/24 07:22:08;;;;;;;39.63;22.38;;;12.00;99.90;;;;;;5045531;28;20439;-71
2022/03/24 07:24:34;;;;;;;29.52;23.05;;;12.00;99.90;;;;;;5046855;28;20025;-71
2022/03/24 07:27:00;;;;;;;23.42;20.95;;;12.10;99.90;;;;;;5049636;28;20025;-70
2022/03/24 07:29:26;;;;;;;24.38;19.30;;;12.10;99.90;;;;;;5045784;28;20028;-71
2022/03/24 07:31:53;;;;;;;28.75;18.13;;;12.10;99.90;;;;;;5050246;28;20035;-69
2022/03/24 07:34:19;;;;;;;27.38;18.25;;;12.10;99.90;;;;;;5050287;28;20025;-69
2022/03/24 07:36:44;;;;;;;29.20;17.45;;;12.20;99.90;;;;;;5049248;28;20028;-71
2022/03/24 07:39:11;;;;;;;27.40;18.90;;;12.20;99.90;;;;;;5051029;28;20025;-71
2022/03/24 07:41:37;;;;;;;24.95;17.77;;;12.30;99.90;;;;;;5048941;28;20048;-71
2022/03/24 07:44:04;;;;;;;21.90;17.42;;;12.50;99.90;;;;;;5046360;28;20404;-71
2022/03/24 07:46:30;;;;;;;31.15;19.52;;;12.60;99.90;;;;;;5052342;28;20155;-71
2022/03/24 07:48:56;;;;;;;28.77;19.02;;;12.80;99.90;;;;;;5047428;28;20021;-70
2022/03/24 07:51:23;;;;;;;27.40;19.05;;;12.90;99.90;;;;;;5049944;28;20036;-70
2022/03/24 07:53:48;;;;;;;23.05;16.65;;;13.00;99.90;;;;;;5053674;28;20025;-71
2022/03/24 07:56:24;;;;;;;23.73;16.17;;;13.10;99.90;;;;;;5048328;28;20497;-71
2022/03/24 07:58:51;;;;;;;21.35;15.52;;;13.10;99.90;;;;;;5051484;28;20021;-70
2022/03/24 08:01:25;;;;;;;22.83;16.42;;;13.00;99.90;;;;;;5050393;28;20029;-70
2022/03/24 08:03:53;;;;;;;19.30;16.50;;;12.80;99.90;;;;;;5050574;28;20033;-70
2022/03/24 08:06:20;;;;;;;19.35;14.77;;;12.80;99.90;;;;;;5043059;28;20461;-68
2022/03/24 08:08:46;;;;;;;20.92;15.93;;;12.80;99.90;;;;;;5041115;28;20112;-69
2022/03/24 08:11:11;;;;;;;22.80;17.80;;;12.80;99.90;;;;;;5040940;28;20109;-70
2022/03/24 08:13:37;;;;;;;24.65;15.23;;;12.90;99.90;;;;;;5038054;28;20480;-70
2022/03/24 08:16:04;;;;;;;23.63;15.25;;;13.00;99.90;;;;;;5044945;28;20029;-70
2022/03/24 08:18:30;;;;;;;22.02;16.80;;;13.10;99.90;;;;;;5043874;28;20021;-70
2022/03/24 08:20:56;;;;;;;24.58;16.48;;;13.10;99.90;;;;;;5035445;28;20475;-70
2022/03/24 08:23:22;;;;;;;22.83;16.52;;;13.20;99.90;;;;;;5040372;28;20032;-71
2022/03/24 08:25:48;;;;;;;23.25;17.05;;;13.30;99.90;;;;;;5036045;28;20506;-70
2022/03/24 08:28:14;;;;;;;28.30;16.00;;;13.40;99.90;;;;;;5040259;28;20021;-72
2022/03/24 08:30:41;;;;;;;20.65;15.40;;;13.50;99.90;;;;;;5050204;28;20028;-71
2022/03/24 08:33:10;;;;;;;22.13;15.40;;;13.60;99.90;;;;;;5045333;28;20032;-69
2022/03/24 08:35:36;;;;;;;18.50;14.55;;;13.60;99.90;;;;;;5047127;28;20085;-71
2022/03/24 08:38:02;;;;;;;23.20;14.52;;;13.60;99.90;;;;;;5050849;28;20512;-69
2022/03/24 08:40:28;;;;;;;19.60;14.27;;;13.70;99.90;;;;;;5048298;28;20554;-70
2022/03/24 08:42:54;;;;;;;17.60;13.05;;;13.80;99.90;;;;;;5045485;28;20167;-69
2022/03/24 08:45:20;;;;;;;16.48;12.60;;;13.80;99.90;;;;;;5042095;28;20154;-64
2022/03/24 08:47:46;;;;;;;18.65;13.10;;;13.90;99.90;;;;;;5047158;28;20029;-64
2022/03/24 08:50:13;;;;;;;13.68;10.60;;;13.90;98.10;;;;;;5044158;28;20569;-63
2022/03/24 08:52:41;;;;;;;19.75;12.40;;;14.00;95.20;;;;;;5041120;28;20017;-62
2022/03/24 08:55:09;;;;;;;19.08;11.93;;;14.20;98.60;;;;;;5030491;28;20037;-65
2022/03/24 08:57:35;;;;;;;17.70;12.80;;;14.20;99.90;;;;;;5030706;28;20037;-64
2022/03/24 09:00:15;;;;;;;16.45;12.23;;;14.10;99.90;;;;;;5036670;28;20051;-63
2022/03/24 09:02:43;;;;;;;20.48;14.02;;;13.90;99.90;;;;;;5041900;28;20032;-64
2022/03/24 09:05:09;;;;;;;18.88;13.50;;;13.80;99.90;;;;;;5048493;28;20033;-63
2022/03/24 09:07:36;;;;;;;24.20;14.80;;;13.80;99.90;;;;;;5024581;28;20017;-63
2022/03/24 09:10:06;;;;;;;21.23;13.93;;;13.90;99.90;;;;;;5036898;28;20078;-64
2022/03/24 09:12:34;;;;;;;23.60;15.10;;;13.90;99.90;;;;;;5042342;28;20045;-63
2022/03/24 09:15:00;;;;;;;21.23;13.82;;;13.90;99.90;;;;;;5044006;28;20025;-63
2022/03/24 09:17:26;;;;;;;15.02;12.43;;;13.90;99.90;;;;;;5043938;28;20447;-63
2022/03/24 09:19:52;;;;;;;16.42;12.88;;;14.00;99.90;;;;;;5043087;28;20041;-63
2022/03/24 09:22:18;;;;;;;19.25;12.02;;;14.00;99.90;;;;;;5042542;28;20061;-64
2022/03/24 09:24:44;;;;;;;15.65;12.98;;;14.00;99.90;;;;;;5036571;28;20080;-62
2022/03/24 09:27:10;;;;;;;17.52;13.57;;;14.10;99.90;;;;;;5045839;28;20430;-64
2022/03/24 09:29:35;;;;;;;14.95;12.35;;;14.20;99.90;;;;;;5047867;28;20021;-64
2022/03/24 09:32:01;;;;;;;23.27;12.07;;;14.30;99.90;;;;;;5049029;28;20055;-64
2022/03/24 09:34:27;;;;;;;17.20;12.50;;;14.50;99.90;;;;;;5041380;28;20079;-63
2022/03/24 09:36:53;;;;;;;14.23;11.82;;;14.60;99.90;;;;;;5038259;28;20022;-63
2022/03/24 09:39:19;;;;;;;15.38;11.98;;;14.70;99.90;;;;;;5033844;28;20070;-64
2022/03/24 09:41:47;;;;;;;15.30;11.45;;;14.70;99.50;;;;;;5037958;28;20514;-65
2022/03/24 09:44:14;;;;;;;28.73;13.52;;;14.70;98.30;;;;;;5048685;28;20032;-64
2022/03/24 09:46:42;;;;;;;15.68;11.00;;;14.90;98.40;;;;;;5032236;28;20025;-64
2022/03/24 09:49:10;;;;;;;12.90;9.90;;;15.00;97.00;;;;;;5038601;28;20021;-64
2022/03/24 09:51:39;;;;;;;13.07;9.27;;;15.20;97.00;;;;;;5042605;28;20035;-68
2022/03/24 09:54:06;;;;;;;18.20;9.70;;;15.30;95.10;;;;;;5042012;28;20017;-66
2022/03/24 09:56:32;;;;;;;22.02;10.90;;;15.40;94.10;;;;;;5044395;28;20419;-65
2022/03/24 09:58:58;;;;;;;13.07;10.32;;;15.50;96.10;;;;;;5045816;28;20125;-64
2022/03/24 10:01:24;;;;;;;11.23;9.68;;;15.50;95.10;;;;;;5042366;28;20021;-65
2022/03/24 10:04:09;;;;;;;13.32;9.95;;;15.50;91.10;;;;;;5046246;28;20029;-64
2022/03/24 10:06:37;;;;;;;13.30;10.13;;;15.60;91.30;;;;;;5045259;28;20025;-63
2022/03/24 10:09:04;;;;;;;14.82;9.30;;;15.60;88.80;;;;;;5040130;28;20372;-63
2022/03/24 10:11:30;;;;;;;9.93;8.90;;;15.60;88.80;;;;;;5046252;28;20299;-64
2022/03/24 10:13:58;;;;;;;15.13;8.32;;;15.70;86.60;;;;;;5046959;28;20023;-65
2022/03/24 10:16:33;;;;;;;16.38;9.02;;;15.80;87.50;;;;;;5046803;28;20017;-65
2022/03/24 10:19:07;;;;;;;12.38;8.20;;;15.70;84.70;;;;;;5042582;28;20028;-64
2022/03/24 10:21:36;;;;;;;12.32;9.50;;;15.80;87.40;;;;;;5050603;28;20222;-65
2022/03/24 10:24:12;;;;;;;12.55;9.20;;;15.80;85.00;;;;;;5047986;28;20036;-64
2022/03/24 10:27:02;;;;;;;13.65;10.30;;;15.70;84.00;;;;;;5047915;28;20021;-64
2022/03/24 10:29:29;;;;;;;20.58;10.90;;;15.60;84.80;;;;;;5035684;28;20025;-64
2022/03/24 10:31:57;;;;;;;13.40;8.70;;;15.90;87.20;;;;;;5053588;28;20025;-65
2022/03/24 10:34:41;;;;;;;11.10;9.80;;;16.00;83.80;;;;;;5052245;28;20372;-65
2022/03/24 10:37:09;;;;;;;14.50;10.80;;;15.90;87.70;;;;;;5038767;28;20026;-63
2022/03/24 10:39:37;;;;;;;11.18;9.60;;;15.90;86.10;;;;;;5034841;28;20480;-65
2022/03/24 10:42:18;;;;;;;15.98;9.82;;;15.80;85.20;;;;;;5032022;28;20079;-64
2022/03/24 10:45:02;;;;;;;14.15;9.60;;;15.80;85.90;;;;;;5038913;28;20491;-64
2022/03/24 10:47:40;;;;;;;13.70;9.18;;;15.80;85.60;;;;;;5045971;28;20025;-64
2022/03/24 10:50:28;;;;;;;13.95;9.10;;;15.90;84.80;;;;;;5053923;28;20021;-63
2022/03/24 10:52:57;;;;;;;12.23;9.98;;;16.00;83.40;;;;;;5053954;28;20028;-64
2022/03/24 10:55:35;;;;;;;13.32;9.57;;;15.90;83.60;;;;;;5045420;28;20025;-64
2022/03/24 10:58:04;;;;;;;14.70;9.60;;;15.90;85.10;;;;;;5035433;28;20022;-63
2022/03/24 11:00:31;;;;;;;15.07;9.77;;;16.00;84.10;;;;;;5032490;28;20021;-64
2022/03/24 11:02:58;;;;;;;12.40;9.02;;;16.20;84.60;;;;;;5033187;28;20037;-62
2022/03/24 11:05:23;;;;;;;19.60;10.32;;;16.20;82.40;;;;;;5038148;28;20163;-63
2022/03/24 11:07:54;;;;;;;21.15;11.80;;;16.20;83.60;;;;;;5039354;28;20064;-63
2022/03/24 11:10:22;;;;;;;20.08;10.45;;;16.20;86.30;;;;;;5032360;28;20052;-63
2022/03/24 11:12:51;;;;;;;19.25;9.98;;;16.30;89.80;;;;;;5031015;28;20392;-65
2022/03/24 11:15:17;;;;;;;22.13;11.05;;;16.40;87.90;;;;;;5034893;28;20033;-64
2022/03/24 11:17:45;;;;;;;17.55;9.82;;;16.40;87.30;;;;;;5045902;28;20344;-62
2022/03/24 11:20:21;;;;;;;13.10;10.10;;;16.40;86.60;;;;;;5051781;28;20486;-63
2022/03/24 11:22:55;;;;;;;15.60;12.00;;;16.40;86.70;;;;;;5050658;28;20025;-63
2022/03/24 11:25:25;;;;;;;18.27;11.63;;;16.30;85.70;;;;;;5044400;28;20025;-65
2022/03/24 11:27:53;;;;;;;15.52;11.98;;;16.30;86.50;;;;;;5046799;28;20021;-64
2022/03/24 11:30:20;;;;;;;13.45;12.00;;;16.30;85.20;;;;;;5052406;28;20017;-63
2022/03/24 11:32:49;;;;;;;14.05;11.27;;;16.40;90.50;;;;;;5050296;28;20060;-64
2022/03/24 11:35:16;;;;;;;16.45;11.90;;;16.40;88.00;;;;;;5048136;28;20060;-63
2022/03/24 11:37:43;;;;;;;14.82;10.63;;;16.40;87.90;;;;;;5050971;28;20117;-63
2022/03/24 11:40:13;;;;;;;14.43;10.43;;;16.30;84.50;;;;;;5050367;28;20065;-62
2022/03/24 11:43:05;;;;;;;10.88;9.88;;;16.10;84.30;;;;;;5047367;28;20060;-63
2022/03/24 11:45:49;;;;;;;22.92;12.15;;;16.20;88.10;;;;;;5048445;28;20505;-65
2022/03/24 11:48:16;;;;;;;12.82;11.05;;;16.20;88.60;;;;;;5052161;28;20110;-65
2022/03/24 11:50:48;;;;;;;12.35;11.02;;;16.30;87.50;;;;;;5052267;28;20122;-66
2022/03/24 11:53:29;;;;;;;13.68;11.55;;;16.40;85.30;;;;;;5048549;28;20028;-64
2022/03/24 11:56:03;;;;;;;15.00;11.75;;;16.30;91.30;;;;;;5034924;28;20030;-63
2022/03/24 11:58:45;;;;;;;14.32;12.82;;;16.30;91.90;;;;;;5037957;28;20017;-63
2022/03/24 12:01:19;;;;;;;14.98;13.15;;;16.40;92.60;;;;;;5049473;28;20025;-64
2022/03/24 12:03:51;;;;;;;14.95;12.20;;;16.50;86.10;;;;;;5044490;28;20058;-63
2022/03/24 12:06:19;;;;;;;15.20;12.05;;;16.30;82.20;;;;;;5046899;28;20037;-62
2022/03/24 12:08:51;;;;;;;17.55;11.82;;;16.30;81.30;;;;;;5051771;28;20097;-62
2022/03/24 12:11:32;;;;;;;17.73;12.48;;;16.20;78.30;;;;;;5051953;28;20035;-63
2022/03/24 12:14:04;;;;;;;15.32;13.40;;;16.10;79.20;;;;;;5040828;28;20061;-62
2022/03/24 12:16:30;;;;;;;;;;;16.20;80.40;;;;;;5042217;28;20021;-62
2022/03/24 12:18:57;;;;;;;18.05;14.90;;;16.30;84.60;;;;;;5044672;28;19917;-63
2022/03/24 12:21:25;;;;;;;27.20;18.92;;;16.20;82.60;;;;;;5049442;28;20039;-63
2022/03/24 12:24:07;;;;;;;13.05;11.75;;;16.30;86.20;;;;;;5043804;28;20025;-64
2022/03/24 12:26:38;;;;;;;18.83;16.67;;;16.20;83.50;;;;;;5043369;28;20021;-62
2022/03/24 12:29:10;;;;;;;18.40;15.15;;;16.30;90.50;;;;;;5030978;28;20021;-64
2022/03/24 12:31:56;;;;;;;13.98;12.13;;;16.40;92.70;;;;;;5047656;28;20025;-63
2022/03/24 12:34:29;;;;;;;12.02;10.63;;;16.50;91.00;;;;;;5042073;28;20452;-65
2022/03/24 12:36:56;;;;;;;13.57;10.13;;;16.60;89.30;;;;;;5046897;28;20095;-63